createdAt,value
2023-05-17T00:02:06.713Z,45.65
2023-05-17T00:05:08.986Z,46.14
2023-05-17T00:08:11.322Z,46.31
2023-05-17T00:11:12.982Z,46.41
2023-05-17T00:14:14.557Z,46.43
2023-05-17T00:17:16.827Z,46.30
2023-05-17T00:20:18.450Z,46.28
2023-05-17T00:23:20.155Z,46.63
2023-05-17T00:26:21.870Z,46.33
2023-05-17T00:29:23.485Z,46.39
2023-05-17T00:32:25.195Z,46.51
2023-05-17T00:35:27.161Z,46.69
2023-05-17T00:38:29.046Z,46.38
2023-05-17T00:41:30.697Z,46.28
2023-05-17T00:44:32.322Z,45.34
2023-05-17T00:47:33.980Z,45.51
2023-05-17T00:50:35.738Z,45.43
2023-05-17T00:53:37.712Z,45.36
2023-05-17T00:56:39.471Z,45.80
2023-05-17T00:59:43.807Z,45.40
2023-05-17T01:02:48.656Z,46.49
2023-05-17T01:05:51.356Z,46.73
2023-05-17T01:08:53.251Z,46.78
2023-05-17T01:12:11.147Z,46.80
2023-05-17T01:15:24.600Z,46.80
2023-05-17T01:19:10.656Z,46.89
2023-05-17T01:22:25.481Z,46.72
2023-05-17T01:25:41.551Z,46.75
2023-05-17T01:28:46.663Z,46.88
2023-05-17T01:31:49.821Z,46.93
2023-05-17T01:34:51.580Z,46.73
2023-05-17T01:37:56.451Z,46.81
2023-05-17T01:41:16.256Z,46.78
2023-05-17T01:44:26.766Z,46.79
2023-05-17T01:47:42.176Z,46.87
2023-05-17T01:50:48.683Z,46.77
2023-05-17T01:53:57.209Z,46.82
2023-05-17T01:56:59.616Z,46.92
2023-05-17T02:00:05.829Z,47.07
2023-05-17T02:03:07.794Z,46.78
2023-05-17T02:06:09.401Z,47.11
2023-05-17T02:09:11.409Z,47.07
2023-05-17T02:12:13.148Z,46.84
2023-05-17T02:15:16.608Z,46.98
2023-05-17T02:18:18.342Z,47.02
2023-05-17T02:21:19.977Z,47.09
2023-05-17T02:24:21.556Z,47.19
2023-05-17T02:27:23.144Z,47.24
2023-05-17T02:30:24.801Z,47.22
2023-05-17T02:33:26.633Z,47.63
2023-05-17T02:36:28.453Z,47.82
2023-05-17T02:39:30.075Z,47.79
2023-05-17T02:42:32.349Z,48.15
2023-05-17T02:45:33.914Z,48.47
2023-05-17T02:48:35.847Z,48.39
2023-05-17T02:51:37.426Z,48.79
2023-05-17T02:54:39.013Z,49.00
2023-05-17T02:57:40.751Z,49.54
2023-05-17T03:00:46.349Z,49.96
2023-05-17T03:03:48.166Z,50.37
2023-05-17T03:06:50.997Z,50.83
2023-05-17T03:09:52.647Z,51.10
2023-05-17T03:12:54.292Z,51.70
2023-05-17T03:15:55.920Z,51.65
2023-05-17T03:18:57.719Z,51.55
2023-05-17T03:21:59.524Z,51.74
2023-05-17T03:25:01.282Z,51.60
2023-05-17T03:28:03.218Z,51.76
2023-05-17T03:31:05.064Z,51.73
2023-05-17T03:34:06.866Z,51.47
2023-05-17T03:37:08.901Z,51.56
2023-05-17T03:40:11.131Z,51.44
2023-05-17T03:43:12.723Z,51.27
2023-05-17T03:46:14.620Z,51.04
2023-05-17T03:49:16.341Z,51.12
2023-05-17T03:52:18.142Z,50.81
2023-05-17T03:55:20.135Z,50.90
2023-05-17T03:58:21.727Z,50.80
2023-05-17T04:01:23.362Z,50.45
2023-05-17T04:04:25.124Z,50.32
2023-05-17T04:07:26.828Z,50.32
2023-05-17T04:10:28.453Z,50.19
2023-05-17T04:13:30.096Z,49.80
2023-05-17T04:16:32.206Z,49.71
2023-05-17T04:19:34.320Z,49.65
2023-05-17T04:22:35.990Z,49.55
2023-05-17T04:25:37.770Z,49.35
2023-05-17T04:28:39.376Z,49.24
2023-05-17T04:31:41.042Z,49.34
2023-05-17T04:34:43.321Z,49.36
2023-05-17T04:37:44.957Z,49.18
2023-05-17T04:40:46.539Z,49.31
2023-05-17T04:43:48.165Z,49.44
2023-05-17T04:46:50.513Z,49.63
2023-05-17T04:49:52.155Z,49.60
2023-05-17T04:52:53.771Z,49.66
2023-05-17T04:55:55.420Z,49.91
2023-05-17T04:58:56.980Z,50.09
2023-05-17T05:01:58.591Z,50.36
2023-05-17T05:05:00.808Z,50.37
2023-05-17T05:08:02.693Z,49.99
2023-05-17T05:11:04.621Z,49.94
2023-05-17T05:14:06.253Z,50.07
2023-05-17T05:17:09.078Z,50.22
2023-05-17T05:20:10.932Z,50.18
2023-05-17T05:23:12.551Z,47.30
2023-05-17T05:26:14.218Z,46.68
2023-05-17T05:29:15.871Z,46.37
2023-05-17T05:32:17.567Z,46.25
2023-05-17T05:35:19.430Z,43.25
2023-05-17T05:38:21.210Z,41.51
2023-05-17T05:41:23.922Z,41.15
2023-05-17T05:44:25.995Z,39.68
2023-05-17T05:47:27.728Z,38.08
2023-05-17T05:50:29.791Z,37.34
2023-05-17T05:53:31.756Z,36.43
2023-05-17T05:56:33.414Z,35.78
2023-05-17T05:59:35.098Z,35.68
2023-05-17T06:02:37.382Z,35.67
2023-05-17T06:05:40.499Z,35.65
2023-05-17T06:08:43.648Z,35.68
2023-05-17T06:11:45.265Z,35.32
2023-05-17T06:14:46.878Z,35.16
2023-05-17T06:17:48.525Z,34.79
2023-05-17T06:20:50.186Z,34.15
2023-05-17T06:23:52.778Z,33.95
2023-05-17T06:26:54.456Z,33.39
2023-05-17T06:29:58.815Z,33.22
2023-05-17T06:33:00.532Z,32.96
2023-05-17T06:39:04.809Z,31.77
2023-05-17T06:42:06.506Z,31.37
2023-05-17T06:45:08.614Z,30.81
2023-05-17T06:48:10.308Z,30.76
2023-05-17T06:51:12.011Z,30.73
2023-05-17T06:54:13.628Z,30.34
2023-05-17T06:57:15.382Z,30.44
2023-05-17T07:00:17.430Z,30.28
2023-05-17T07:03:19.192Z,30.50
2023-05-17T07:06:21.344Z,30.31
2023-05-17T07:09:23.104Z,30.97
2023-05-17T07:12:24.687Z,30.69
2023-05-17T07:15:26.532Z,31.04
2023-05-17T07:18:28.415Z,30.98
2023-05-17T07:21:30.527Z,31.21
2023-05-17T07:24:32.159Z,31.11
2023-05-17T07:27:33.837Z,31.09
2023-05-17T07:30:35.486Z,31.19
2023-05-17T07:33:38.010Z,31.20
2023-05-17T07:36:39.690Z,31.30
2023-05-17T07:39:41.364Z,31.30
2023-05-17T07:42:43.103Z,31.32
2023-05-17T07:45:44.711Z,31.54
2023-05-17T07:48:46.469Z,31.30
2023-05-17T07:51:48.278Z,31.38
2023-05-17T07:54:49.909Z,31.50
2023-05-17T07:57:52.516Z,31.59
2023-05-17T08:00:54.195Z,31.62
2023-05-17T08:03:55.858Z,31.62
2023-05-17T08:06:57.797Z,31.61
2023-05-17T08:09:59.369Z,31.58
2023-05-17T08:13:00.973Z,31.63
2023-05-17T08:16:12.625Z,31.69
2023-05-17T08:19:16.699Z,31.68
2023-05-17T08:22:18.415Z,31.60
2023-05-17T08:25:21.144Z,32.00
2023-05-17T08:28:22.743Z,31.73
2023-05-17T08:31:24.535Z,31.68
2023-05-17T08:34:26.183Z,31.69
2023-05-17T08:37:27.818Z,31.66
2023-05-17T08:40:29.667Z,31.75
2023-05-17T08:43:31.906Z,31.85
2023-05-17T08:46:35.165Z,31.76
2023-05-17T08:49:38.123Z,31.80
2023-05-17T08:52:44.769Z,31.75
2023-05-17T08:55:50.214Z,31.66
2023-05-17T08:58:57.947Z,31.78
2023-05-17T09:02:00.748Z,31.83
2023-05-17T09:05:02.722Z,31.85
2023-05-17T09:08:05.230Z,31.82
2023-05-17T09:11:07.416Z,31.97
2023-05-17T09:14:09.069Z,31.98
2023-05-17T09:17:18.329Z,31.90
2023-05-17T09:20:38.987Z,32.11
2023-05-17T09:23:40.793Z,32.02
2023-05-17T09:26:45.501Z,32.22
2023-05-17T09:29:48.446Z,32.25
2023-05-17T09:32:50.225Z,32.25
2023-05-17T09:35:51.986Z,32.36
2023-05-17T09:38:59.507Z,32.93
2023-05-17T09:42:01.273Z,32.78
2023-05-17T09:45:03.145Z,33.21
2023-05-17T09:48:15.885Z,33.26
2023-05-17T09:51:17.520Z,33.59
2023-05-17T09:54:19.389Z,33.57
2023-05-17T09:57:21.464Z,33.44
2023-05-17T10:00:24.182Z,33.47
2023-05-17T10:03:33.206Z,33.50
2023-05-17T10:06:46.031Z,33.79
2023-05-17T10:09:52.318Z,33.39
2023-05-17T10:12:54.131Z,33.42
2023-05-17T10:15:56.264Z,33.42
2023-05-17T10:18:58.093Z,33.34
2023-05-17T10:22:18.961Z,33.77
2023-05-17T10:25:24.104Z,33.29
2023-05-17T10:28:28.459Z,33.53
2023-05-17T10:31:33.280Z,34.24
2023-05-17T10:34:36.575Z,35.50
2023-05-17T10:37:40.500Z,35.19
2023-05-17T10:40:44.709Z,35.69
2023-05-17T10:43:46.898Z,35.57
2023-05-17T10:46:53.980Z,36.17
2023-05-17T10:49:55.983Z,35.46
2023-05-17T10:52:59.519Z,35.44
2023-05-17T10:56:01.156Z,35.79
2023-05-17T10:59:18.484Z,35.97
2023-05-17T11:02:24.368Z,36.26
2023-05-17T11:05:27.556Z,36.43
2023-05-17T11:08:29.585Z,35.91
2023-05-17T11:11:31.209Z,36.01
2023-05-17T11:14:45.043Z,36.24
2023-05-17T11:17:50.477Z,35.96
2023-05-17T11:21:08.758Z,36.12
2023-05-17T11:24:16.023Z,36.11
2023-05-17T11:27:20.070Z,36.13
2023-05-17T11:30:32.429Z,35.89
2023-05-17T11:33:44.482Z,36.10
2023-05-17T11:36:54.543Z,36.21
2023-05-17T11:40:07.974Z,36.23
2023-05-17T11:43:11.108Z,36.31
2023-05-17T11:46:20.640Z,36.32
2023-05-17T11:49:34.032Z,36.35
2023-05-17T11:52:40.568Z,36.43
2023-05-17T11:55:45.010Z,36.38
2023-05-17T11:58:52.194Z,36.32
2023-05-17T12:01:53.913Z,36.21
2023-05-17T12:04:55.745Z,36.30
2023-05-17T12:07:58.137Z,36.24
2023-05-17T12:11:00.489Z,36.54
2023-05-17T12:14:02.290Z,36.67
2023-05-17T12:17:07.989Z,36.63
2023-05-17T12:20:10.375Z,36.76
2023-05-17T12:23:12.131Z,36.71
2023-05-17T12:26:18.238Z,36.84
2023-05-17T12:29:22.884Z,36.68
2023-05-17T12:32:25.608Z,36.54
2023-05-17T12:35:27.292Z,36.66
2023-05-17T12:38:33.075Z,36.69
2023-05-17T12:41:34.997Z,36.58
2023-05-17T12:44:36.761Z,36.58
2023-05-17T12:47:38.687Z,36.95
2023-05-17T12:50:45.846Z,36.70
2023-05-17T12:53:52.299Z,37.21
2023-05-17T12:56:54.138Z,39.47
2023-05-17T12:59:55.827Z,44.39
2023-05-17T13:02:57.527Z,47.26
2023-05-17T13:05:59.980Z,51.47
2023-05-17T13:09:02.066Z,53.34
2023-05-17T13:12:07.796Z,52.97
2023-05-17T13:15:09.798Z,53.95
2023-05-17T13:18:18.272Z,54.74
2023-05-17T13:21:20.768Z,54.90
2023-05-17T13:24:22.393Z,54.75
2023-05-17T13:27:23.996Z,54.92
2023-05-17T13:30:25.728Z,55.14
2023-05-17T13:33:27.948Z,56.03
2023-05-17T13:36:29.646Z,56.44
2023-05-17T13:39:31.290Z,56.57
2023-05-17T13:42:33.196Z,57.33
2023-05-17T13:45:35.035Z,56.95
2023-05-17T13:48:37.814Z,56.38
2023-05-17T13:51:40.780Z,56.70
2023-05-17T13:54:42.495Z,56.51
2023-05-17T13:57:45.673Z,56.38
2023-05-17T14:00:47.386Z,56.91
2023-05-17T14:03:49.057Z,57.30
2023-05-17T14:06:54.190Z,57.30
2023-05-17T14:09:56.711Z,57.50
2023-05-17T14:12:58.476Z,57.94
2023-05-17T14:16:00.120Z,57.93
2023-05-17T14:19:04.488Z,58.21
2023-05-17T14:22:06.663Z,58.23
2023-05-17T14:25:09.009Z,58.45
2023-05-17T14:28:12.423Z,58.62
2023-05-17T14:31:14.131Z,57.84
2023-05-17T14:34:15.820Z,58.22
2023-05-17T14:37:17.612Z,57.99
2023-05-17T14:40:19.294Z,58.33
2023-05-17T14:43:20.983Z,58.63
2023-05-17T14:46:23.556Z,58.30
2023-05-17T14:49:25.204Z,58.33
2023-05-17T14:52:26.917Z,58.08
2023-05-17T14:55:28.841Z,58.40
2023-05-17T14:58:30.720Z,58.04
2023-05-17T15:01:32.705Z,58.26
2023-05-17T15:04:34.475Z,58.50
2023-05-17T15:07:36.619Z,58.68
2023-05-17T15:10:38.501Z,58.42
2023-05-17T15:13:40.058Z,58.75
2023-05-17T15:16:42.296Z,58.64
2023-05-17T15:19:44.188Z,58.24
2023-05-17T15:22:46.349Z,58.78
2023-05-17T15:25:48.054Z,59.07
2023-05-17T15:28:52.249Z,58.62
2023-05-17T15:31:53.835Z,58.96
2023-05-17T15:34:55.421Z,58.66
2023-05-17T15:37:59.527Z,58.74
2023-05-17T15:41:04.207Z,59.01
2023-05-17T15:44:06.200Z,58.67
2023-05-17T15:47:07.868Z,59.18
2023-05-17T15:50:09.746Z,59.08
2023-05-17T15:53:11.444Z,59.41
2023-05-17T15:56:13.194Z,60.26
2023-05-17T15:59:15.692Z,59.99
2023-05-17T16:02:18.645Z,59.79
2023-05-17T16:05:20.271Z,59.54
2023-05-17T16:08:23.215Z,59.41
2023-05-17T16:11:24.836Z,59.07
2023-05-17T16:14:26.621Z,59.36
2023-05-17T16:17:28.513Z,59.33
2023-05-17T16:20:30.180Z,58.94
2023-05-17T16:23:32.628Z,59.31
2023-05-17T16:26:35.659Z,59.31
2023-05-17T16:29:40.030Z,59.07
2023-05-17T16:32:42.559Z,59.10
2023-05-17T16:35:44.273Z,59.46
2023-05-17T16:38:45.958Z,59.49
2023-05-17T16:41:47.676Z,59.11
2023-05-17T16:44:49.364Z,59.28
2023-05-17T16:47:51.114Z,59.05
2023-05-17T16:50:52.999Z,59.07
2023-05-17T16:53:54.623Z,58.60
2023-05-17T16:56:56.500Z,59.37
2023-05-17T17:00:00.389Z,59.08
2023-05-17T17:03:02.164Z,58.26
2023-05-17T17:06:03.930Z,58.17
2023-05-17T17:09:08.320Z,58.23
2023-05-17T17:12:20.522Z,57.93
2023-05-17T17:15:25.342Z,57.74
2023-05-17T17:18:27.018Z,57.82
2023-05-17T17:21:28.678Z,58.21
2023-05-17T17:24:30.496Z,58.38
2023-05-17T17:27:32.161Z,58.18
2023-05-17T17:30:34.007Z,58.06
2023-05-17T17:33:36.262Z,57.90
2023-05-17T17:36:37.925Z,57.76
2023-05-17T17:39:39.610Z,57.68
2023-05-17T17:42:41.262Z,58.02
2023-05-17T17:45:42.958Z,58.00
2023-05-17T17:48:44.567Z,57.84
2023-05-17T17:51:46.410Z,57.28
2023-05-17T17:54:48.039Z,57.48
2023-05-17T17:57:50.989Z,57.37
2023-05-17T18:00:53.826Z,57.51
2023-05-17T18:03:55.480Z,57.35
2023-05-17T18:06:57.110Z,57.24
2023-05-17T18:09:58.739Z,57.04
2023-05-17T18:13:00.596Z,57.01
2023-05-17T18:16:02.465Z,57.20
2023-05-17T18:19:04.131Z,57.44
2023-05-17T18:22:06.135Z,57.16
2023-05-17T18:25:08.073Z,56.82
2023-05-17T18:28:09.640Z,56.87
2023-05-17T18:31:11.402Z,56.99
2023-05-17T18:34:13.096Z,56.76
2023-05-17T18:37:14.715Z,56.53
2023-05-17T18:40:16.426Z,56.93
2023-05-17T18:43:18.077Z,57.21
2023-05-17T18:46:19.787Z,56.95
2023-05-17T18:49:21.512Z,57.03
2023-05-17T18:52:23.300Z,56.66
2023-05-17T18:55:24.949Z,57.01
2023-05-17T18:58:26.855Z,56.87
2023-05-17T19:01:28.567Z,56.86
2023-05-17T19:04:32.021Z,56.47
2023-05-17T19:07:33.980Z,56.55
2023-05-17T19:10:35.847Z,56.34
2023-05-17T19:13:37.597Z,55.15
2023-05-17T19:16:39.286Z,55.38
2023-05-17T19:19:40.961Z,55.11
2023-05-17T19:22:42.597Z,54.99
2023-05-17T19:25:44.253Z,54.96
2023-05-17T19:28:46.038Z,55.17
2023-05-17T19:31:47.824Z,55.24
2023-05-17T19:34:49.954Z,54.97
2023-05-17T19:37:51.736Z,55.16
2023-05-17T19:40:53.359Z,55.76
2023-05-17T19:43:54.932Z,56.00
2023-05-17T19:46:56.598Z,55.83
2023-05-17T19:49:58.214Z,55.62
2023-05-17T19:52:59.972Z,55.74
2023-05-17T19:56:05.690Z,56.09
2023-05-17T19:59:07.393Z,56.21
2023-05-17T20:02:09.365Z,56.51
2023-05-17T20:05:11.387Z,56.25
2023-05-17T20:08:13.130Z,56.74
2023-05-17T20:11:14.798Z,56.66
2023-05-17T20:14:16.517Z,56.80
2023-05-17T20:17:18.500Z,56.56
2023-05-17T20:20:20.192Z,56.75
2023-05-17T20:23:22.577Z,56.90
2023-05-17T20:26:27.006Z,56.85
2023-05-17T20:29:29.435Z,57.00
2023-05-17T20:32:31.106Z,57.02
2023-05-17T20:35:32.781Z,57.14
2023-05-17T20:38:34.380Z,57.09
2023-05-17T20:41:35.986Z,57.25
2023-05-17T20:44:37.698Z,57.22
2023-05-17T20:47:39.335Z,57.07
2023-05-17T20:50:41.570Z,57.43
2023-05-17T20:53:43.471Z,57.14
2023-05-17T20:56:45.163Z,57.13
2023-05-17T20:59:46.836Z,57.17
2023-05-17T21:02:48.575Z,57.40
2023-05-17T21:05:50.365Z,57.27
2023-05-17T21:08:52.728Z,57.08
2023-05-17T21:11:54.528Z,57.21
2023-05-17T21:15:14.488Z,57.25
2023-05-17T21:18:17.805Z,57.08
2023-05-17T21:21:21.078Z,57.17
2023-05-17T21:24:22.800Z,57.46
2023-05-17T21:27:24.536Z,57.18
2023-05-17T21:30:26.481Z,57.03
2023-05-17T21:33:29.076Z,57.01
2023-05-17T21:36:31.326Z,57.05
2023-05-17T21:39:32.993Z,57.20
2023-05-17T21:42:34.728Z,57.37
2023-05-17T21:45:36.509Z,57.16
2023-05-17T21:48:38.471Z,57.33
2023-05-17T21:51:41.688Z,57.07
2023-05-17T21:54:43.364Z,57.49
2023-05-17T21:57:45.110Z,57.39
2023-05-17T22:00:46.951Z,57.27
2023-05-17T22:03:50.935Z,57.00
2023-05-17T22:06:53.299Z,57.19
2023-05-17T22:09:55.309Z,57.20
2023-05-17T22:12:58.172Z,57.34
2023-05-17T22:16:00.194Z,56.93
2023-05-17T22:19:01.871Z,57.25
2023-05-17T22:22:03.731Z,57.30
2023-05-17T22:25:06.873Z,57.30
2023-05-17T22:28:08.553Z,57.13
2023-05-17T22:31:10.232Z,57.38
2023-05-17T22:34:11.875Z,57.13
2023-05-17T22:37:13.447Z,56.86
2023-05-17T22:40:15.201Z,57.14
2023-05-17T22:43:17.111Z,57.00
2023-05-17T22:46:18.881Z,57.07
2023-05-17T22:49:20.499Z,56.75
2023-05-17T22:52:22.101Z,56.82
2023-05-17T22:55:24.299Z,56.87
2023-05-17T22:58:26.275Z,56.78
2023-05-17T23:01:27.954Z,57.00
2023-05-17T23:04:30.217Z,56.79
2023-05-17T23:07:38.204Z,57.02
2023-05-17T23:10:39.822Z,56.91
2023-05-17T23:13:42.100Z,56.90
2023-05-17T23:16:44.073Z,57.25
2023-05-17T23:19:46.224Z,57.00
2023-05-17T23:22:48.014Z,56.83
2023-05-17T23:25:50.771Z,56.90
2023-05-17T23:28:53.624Z,56.72
2023-05-17T23:31:55.318Z,56.88
2023-05-17T23:34:58.550Z,56.96
2023-05-17T23:38:00.306Z,57.01
2023-05-17T23:41:02.164Z,57.07
2023-05-17T23:44:05.003Z,56.98
2023-05-17T23:47:06.600Z,56.88
2023-05-17T23:50:12.151Z,56.90
2023-05-17T23:53:13.874Z,56.99
2023-05-17T23:56:19.475Z,56.75
2023-05-17T23:59:22.778Z,56.94
